sensor_id;sensor_type;location;lat;lon;timestamp;pressure;altitude;pressure_sealevel;temperature;humidity
27958;BME280;15295;42.658;23.374;2023-01-26T00:00:54;95023.34;;;4.07;54.77
27958;BME280;15295;42.658;23.374;2023-01-26T00:03:26;95063.81;;;4.31;54.57
27958;BME280;15295;42.658;23.374;2023-01-26T00:05:51;95073.56;;;4.20;54.54
27958;BME280;15295;42.658;23.374;2023-01-26T00:08:17;95055.84;;;4.22;54.28
27958;BME280;15295;42.658;23.374;2023-01-26T00:10:42;95052.72;;;4.20;54.22
27958;BME280;15295;42.658;23.374;2023-01-26T00:13:17;95061.91;;;4.31;54.31
27958;BME280;15295;42.658;23.374;2023-01-26T00:15:44;95059.84;;;4.40;54.26
27958;BME280;15295;42.658;23.374;2023-01-26T00:18:09;95039.44;;;4.15;53.99
27958;BME280;15295;42.658;23.374;2023-01-26T00:20:35;95060.84;;;4.20;54.54
27958;BME280;15295;42.658;23.374;2023-01-26T00:23:00;95071.13;;;4.15;54.82
27958;BME280;15295;42.658;23.374;2023-01-26T00:25:26;95069.63;;;4.17;54.74
27958;BME280;15295;42.658;23.374;2023-01-26T00:27:53;95050.25;;;4.15;54.54
27958;BME280;15295;42.658;23.374;2023-01-26T00:30:18;95066.00;;;4.25;54.68
27958;BME280;15295;42.658;23.374;2023-01-26T00:32:44;95055.56;;;4.12;54.48
27958;BME280;15295;42.658;23.374;2023-01-26T00:35:10;95025.38;;;4.10;54.52
27958;BME280;15295;42.658;23.374;2023-01-26T00:37:36;95043.47;;;4.21;54.51
27958;BME280;15295;42.658;23.374;2023-01-26T00:40:01;95024.78;;;4.16;54.39
27958;BME280;15295;42.658;23.374;2023-01-26T00:42:26;95022.75;;;4.13;54.00
27958;BME280;15295;42.658;23.374;2023-01-26T00:44:52;95026.25;;;4.14;54.15
27958;BME280;15295;42.658;23.374;2023-01-26T00:47:18;95030.56;;;4.15;54.05
27958;BME280;15295;42.658;23.374;2023-01-26T00:49:44;95040.22;;;4.16;53.91
27958;BME280;15295;42.658;23.374;2023-01-26T00:52:11;95037.16;;;4.17;53.85
27958;BME280;15295;42.658;23.374;2023-01-26T00:54:37;95025.75;;;3.96;54.07
27958;BME280;15295;42.658;23.374;2023-01-26T00:57:06;95025.66;;;4.20;53.80
27958;BME280;15295;42.658;23.374;2023-01-26T00:59:33;95006.50;;;3.98;53.81
27958;BME280;15295;42.658;23.374;2023-01-26T01:01:59;94999.22;;;4.14;53.39
27958;BME280;15295;42.658;23.374;2023-01-26T01:04:27;95013.53;;;4.14;53.65
27958;BME280;15295;42.658;23.374;2023-01-26T01:06:54;95027.28;;;4.09;52.94
27958;BME280;15295;42.658;23.374;2023-01-26T01:09:22;94995.28;;;3.83;53.47
27958;BME280;15295;42.658;23.374;2023-01-26T01:11:48;95000.16;;;3.78;53.74
27958;BME280;15295;42.658;23.374;2023-01-26T01:14:15;94990.75;;;3.60;54.00
27958;BME280;15295;42.658;23.374;2023-01-26T01:16:43;95003.81;;;3.58;54.10
27958;BME280;15295;42.658;23.374;2023-01-26T01:19:13;95016.63;;;3.73;54.07
27958;BME280;15295;42.658;23.374;2023-01-26T01:21:39;94987.44;;;3.78;53.79
27958;BME280;15295;42.658;23.374;2023-01-26T01:24:05;94974.81;;;3.82;53.29
27958;BME280;15295;42.658;23.374;2023-01-26T01:26:31;95002.00;;;3.74;53.84
27958;BME280;15295;42.658;23.374;2023-01-26T01:28:57;94996.16;;;3.72;53.44
27958;BME280;15295;42.658;23.374;2023-01-26T01:31:26;94991.25;;;3.77;53.67
27958;BME280;15295;42.658;23.374;2023-01-26T01:33:54;94990.38;;;4.01;52.95
27958;BME280;15295;42.658;23.374;2023-01-26T01:36:19;94989.28;;;3.90;52.98
27958;BME280;15295;42.658;23.374;2023-01-26T01:38:47;95006.75;;;3.92;52.93
27958;BME280;15295;42.658;23.374;2023-01-26T01:41:18;94995.41;;;3.87;53.15
27958;BME280;15295;42.658;23.374;2023-01-26T01:44:22;94992.84;;;4.06;52.72
27958;BME280;15295;42.658;23.374;2023-01-26T01:46:50;94998.53;;;4.17;52.21
27958;BME280;15295;42.658;23.374;2023-01-26T01:49:27;94989.97;;;4.15;52.06
27958;BME280;15295;42.658;23.374;2023-01-26T01:52:18;94993.28;;;4.24;51.87
27958;BME280;15295;42.658;23.374;2023-01-26T01:55:16;94998.03;;;4.27;51.72
27958;BME280;15295;42.658;23.374;2023-01-26T01:57:48;94983.25;;;4.24;51.51
27958;BME280;15295;42.658;23.374;2023-01-26T02:00:21;94988.66;;;4.24;51.70
27958;BME280;15295;42.658;23.374;2023-01-26T02:02:54;94972.63;;;4.31;51.12
27958;BME280;15295;42.658;23.374;2023-01-26T02:05:56;94982.81;;;4.22;51.83
27958;BME280;15295;42.658;23.374;2023-01-26T02:08:28;94971.03;;;4.30;51.35
27958;BME280;15295;42.658;23.374;2023-01-26T02:10:57;94947.75;;;4.26;51.66
27958;BME280;15295;42.658;23.374;2023-01-26T02:13:25;94961.53;;;4.36;51.72
27958;BME280;15295;42.658;23.374;2023-01-26T02:15:51;94940.22;;;4.19;51.56
27958;BME280;15295;42.658;23.374;2023-01-26T02:18:17;94956.13;;;4.36;51.35
27958;BME280;15295;42.658;23.374;2023-01-26T02:20:47;94961.63;;;4.40;51.53
27958;BME280;15295;42.658;23.374;2023-01-26T02:28:24;94935.38;;;4.40;51.58
27958;BME280;15295;42.658;23.374;2023-01-26T02:30:52;94930.84;;;4.44;51.59
27958;BME280;15295;42.658;23.374;2023-01-26T02:33:21;94940.50;;;4.45;51.46
27958;BME280;15295;42.658;23.374;2023-01-26T02:35:47;94919.31;;;4.32;51.52
27958;BME280;15295;42.658;23.374;2023-01-26T02:38:13;94913.53;;;4.18;51.92
27958;BME280;15295;42.658;23.374;2023-01-26T02:40:45;94928.09;;;4.13;51.91
27958;BME280;15295;42.658;23.374;2023-01-26T02:43:24;94928.00;;;3.94;52.71
27958;BME280;15295;42.658;23.374;2023-01-26T02:45:53;94876.94;;;3.61;52.65
27958;BME280;15295;42.658;23.374;2023-01-26T02:48:19;94923.47;;;3.98;52.66
27958;BME280;15295;42.658;23.374;2023-01-26T02:51:03;94924.16;;;4.11;52.14
27958;BME280;15295;42.658;23.374;2023-01-26T02:53:29;94910.88;;;3.90;52.58
27958;BME280;15295;42.658;23.374;2023-01-26T02:55:54;94922.53;;;4.06;52.28
27958;BME280;15295;42.658;23.374;2023-01-26T02:58:21;94911.44;;;3.96;52.54
27958;BME280;15295;42.658;23.374;2023-01-26T03:00:48;94881.94;;;3.90;52.19
27958;BME280;15295;42.658;23.374;2023-01-26T03:03:25;94914.47;;;3.94;52.37
27958;BME280;15295;42.658;23.374;2023-01-26T03:06:24;94886.97;;;3.61;52.95
27958;BME280;15295;42.658;23.374;2023-01-26T03:08:49;94884.56;;;3.87;52.64
27958;BME280;15295;42.658;23.374;2023-01-26T03:11:19;94905.59;;;4.09;52.19
27958;BME280;15295;42.658;23.374;2023-01-26T03:13:49;94888.13;;;4.07;52.05
27958;BME280;15295;42.658;23.374;2023-01-26T03:16:15;94895.16;;;4.23;51.91
27958;BME280;15295;42.658;23.374;2023-01-26T03:18:42;94884.75;;;4.25;52.06
27958;BME280;15295;42.658;23.374;2023-01-26T03:21:32;94865.38;;;4.23;51.99
27958;BME280;15295;42.658;23.374;2023-01-26T03:24:28;94879.25;;;4.37;52.14
27958;BME280;15295;42.658;23.374;2023-01-26T03:27:18;94871.22;;;4.25;52.01
27958;BME280;15295;42.658;23.374;2023-01-26T03:29:56;94866.06;;;4.36;51.87
27958;BME280;15295;42.658;23.374;2023-01-26T03:32:24;94860.75;;;4.39;51.81
27958;BME280;15295;42.658;23.374;2023-01-26T03:34:50;94860.97;;;4.50;51.58
27958;BME280;15295;42.658;23.374;2023-01-26T03:37:15;94850.16;;;4.50;51.58
27958;BME280;15295;42.658;23.374;2023-01-26T03:39:46;94868.31;;;4.49;51.59
27958;BME280;15295;42.658;23.374;2023-01-26T03:42:30;94857.06;;;4.47;51.50
27958;BME280;15295;42.658;23.374;2023-01-26T03:45:14;94864.22;;;4.55;51.38
27958;BME280;15295;42.658;23.374;2023-01-26T03:48:06;94849.22;;;4.42;51.92
27958;BME280;15295;42.658;23.374;2023-01-26T03:50:51;94860.47;;;4.44;51.55
27958;BME280;15295;42.658;23.374;2023-01-26T03:53:35;94859.56;;;4.56;51.38
27958;BME280;15295;42.658;23.374;2023-01-26T03:56:19;94842.41;;;4.48;51.55
27958;BME280;15295;42.658;23.374;2023-01-26T03:58:58;94852.78;;;4.46;51.76
27958;BME280;15295;42.658;23.374;2023-01-26T04:01:37;94841.44;;;4.41;51.91
27958;BME280;15295;42.658;23.374;2023-01-26T04:04:05;94839.25;;;4.46;51.74
27958;BME280;15295;42.658;23.374;2023-01-26T04:06:50;94832.63;;;4.44;51.92
27958;BME280;15295;42.658;23.374;2023-01-26T04:09:44;94833.59;;;4.36;52.14
27958;BME280;15295;42.658;23.374;2023-01-26T04:12:09;94835.44;;;4.32;51.99
27958;BME280;15295;42.658;23.374;2023-01-26T04:14:37;94823.41;;;3.98;52.59
27958;BME280;15295;42.658;23.374;2023-01-26T04:17:22;94823.78;;;4.12;52.54
27958;BME280;15295;42.658;23.374;2023-01-26T04:20:07;94829.88;;;4.09;52.71
27958;BME280;15295;42.658;23.374;2023-01-26T04:22:53;94822.19;;;4.27;52.37
27958;BME280;15295;42.658;23.374;2023-01-26T04:25:20;94807.50;;;4.28;52.11
27958;BME280;15295;42.658;23.374;2023-01-26T04:27:46;94787.72;;;4.24;52.02
27958;BME280;15295;42.658;23.374;2023-01-26T04:30:13;94796.63;;;4.09;52.38
27958;BME280;15295;42.658;23.374;2023-01-26T04:32:43;94789.22;;;4.06;52.50
27958;BME280;15295;42.658;23.374;2023-01-26T04:35:11;94755.66;;;3.91;52.37
27958;BME280;15295;42.658;23.374;2023-01-26T04:37:38;94808.66;;;4.27;52.41
27958;BME280;15295;42.658;23.374;2023-01-26T04:40:04;94801.03;;;4.32;52.37
27958;BME280;15295;42.658;23.374;2023-01-26T04:42:30;94802.03;;;4.24;52.36
27958;BME280;15295;42.658;23.374;2023-01-26T04:44:56;94811.09;;;4.32;52.33
27958;BME280;15295;42.658;23.374;2023-01-26T04:47:21;94781.38;;;4.16;52.11
27958;BME280;15295;42.658;23.374;2023-01-26T04:49:47;94807.38;;;4.55;56.79
27958;BME280;15295;42.658;23.374;2023-01-26T04:52:12;94766.81;;;4.94;57.32
27958;BME280;15295;42.658;23.374;2023-01-26T04:54:39;94792.16;;;5.05;51.36
27958;BME280;15295;42.658;23.374;2023-01-26T04:57:05;94800.59;;;5.00;50.55
27958;BME280;15295;42.658;23.374;2023-01-26T04:59:37;94808.72;;;5.00;50.18
27958;BME280;15295;42.658;23.374;2023-01-26T05:02:06;94799.16;;;4.87;50.07
27958;BME280;15295;42.658;23.374;2023-01-26T05:04:33;94789.53;;;4.70;50.30
27958;BME280;15295;42.658;23.374;2023-01-26T05:07:00;94806.53;;;4.70;50.66
27958;BME280;15295;42.658;23.374;2023-01-26T05:10:07;94800.13;;;4.59;50.99
27958;BME280;15295;42.658;23.374;2023-01-26T05:12:32;94808.81;;;4.68;50.76
27958;BME280;15295;42.658;23.374;2023-01-26T05:14:59;94807.94;;;4.64;50.97
27958;BME280;15295;42.658;23.374;2023-01-26T05:17:25;94782.31;;;4.58;50.84
27958;BME280;15295;42.658;23.374;2023-01-26T05:19:51;94789.88;;;4.68;50.71
27958;BME280;15295;42.658;23.374;2023-01-26T05:22:16;94801.22;;;4.74;50.50
27958;BME280;15295;42.658;23.374;2023-01-26T05:24:41;94787.59;;;4.70;50.41
27958;BME280;15295;42.658;23.374;2023-01-26T05:27:07;94793.53;;;4.76;50.44
27958;BME280;15295;42.658;23.374;2023-01-26T05:30:10;94792.50;;;4.65;50.63
27958;BME280;15295;42.658;23.374;2023-01-26T05:32:36;94773.59;;;4.49;50.45
27958;BME280;15295;42.658;23.374;2023-01-26T05:35:04;94787.72;;;4.58;50.74
27958;BME280;15295;42.658;23.374;2023-01-26T05:37:39;94777.94;;;4.54;50.74
27958;BME280;15295;42.658;23.374;2023-01-26T05:40:13;94780.13;;;4.64;50.77
27958;BME280;15295;42.658;23.374;2023-01-26T05:42:49;94790.44;;;4.78;50.65
27958;BME280;15295;42.658;23.374;2023-01-26T05:45:16;94786.63;;;4.79;50.29
27958;BME280;15295;42.658;23.374;2023-01-26T05:47:42;94783.31;;;4.69;50.53
27958;BME280;15295;42.658;23.374;2023-01-26T05:50:09;94803.81;;;4.70;52.92
27958;BME280;15295;42.658;23.374;2023-01-26T05:52:34;94783.38;;;4.73;50.90
27958;BME280;15295;42.658;23.374;2023-01-26T05:55:00;94786.69;;;4.82;50.47
27958;BME280;15295;42.658;23.374;2023-01-26T05:57:26;94785.75;;;4.75;50.36
27958;BME280;15295;42.658;23.374;2023-01-26T05:59:51;94789.81;;;4.84;50.29
27958;BME280;15295;42.658;23.374;2023-01-26T06:02:23;94783.81;;;4.75;50.36
27958;BME280;15295;42.658;23.374;2023-01-26T06:04:49;94760.09;;;4.68;50.25
27958;BME280;15295;42.658;23.374;2023-01-26T06:07:28;94753.19;;;4.71;50.29
27958;BME280;15295;42.658;23.374;2023-01-26T06:10:00;94784.19;;;4.93;50.10
27958;BME280;15295;42.658;23.374;2023-01-26T06:12:26;94791.94;;;4.94;50.35
27958;BME280;15295;42.658;23.374;2023-01-26T06:15:00;94779.56;;;4.93;49.90
27958;BME280;15295;42.658;23.374;2023-01-26T06:17:27;94776.63;;;4.83;50.21
27958;BME280;15295;42.658;23.374;2023-01-26T06:19:53;94751.00;;;4.77;50.20
27958;BME280;15295;42.658;23.374;2023-01-26T06:22:18;94767.56;;;4.75;49.84
27958;BME280;15295;42.658;23.374;2023-01-26T06:24:45;94776.69;;;4.86;49.92
27958;BME280;15295;42.658;23.374;2023-01-26T06:27:13;94783.13;;;4.97;50.05
27958;BME280;15295;42.658;23.374;2023-01-26T06:29:41;94762.16;;;4.94;50.07
27958;BME280;15295;42.658;23.374;2023-01-26T06:32:09;94758.69;;;4.94;49.91
27958;BME280;15295;42.658;23.374;2023-01-26T06:34:38;94748.84;;;4.86;49.93
27958;BME280;15295;42.658;23.374;2023-01-26T06:37:08;94751.84;;;4.81;50.28
27958;BME280;15295;42.658;23.374;2023-01-26T06:39:49;94760.59;;;4.93;50.13
27958;BME280;15295;42.658;23.374;2023-01-26T06:42:14;94759.75;;;4.89;50.28
27958;BME280;15295;42.658;23.374;2023-01-26T06:44:40;94744.84;;;4.80;50.23
27958;BME280;15295;42.658;23.374;2023-01-26T06:47:05;94746.84;;;4.83;50.42
27958;BME280;15295;42.658;23.374;2023-01-26T06:49:33;94744.94;;;4.83;50.16
27958;BME280;15295;42.658;23.374;2023-01-26T06:54:52;94756.69;;;4.91;50.29
27958;BME280;15295;42.658;23.374;2023-01-26T06:57:23;94771.72;;;5.07;50.06
27958;BME280;15295;42.658;23.374;2023-01-26T06:59:58;94771.59;;;5.00;50.13
27958;BME280;15295;42.658;23.374;2023-01-26T07:02:33;94751.41;;;4.79;50.60
27958;BME280;15295;42.658;23.374;2023-01-26T07:04:58;94752.69;;;4.85;50.32
27958;BME280;15295;42.658;23.374;2023-01-26T07:07:24;94738.22;;;4.58;50.41
27958;BME280;15295;42.658;23.374;2023-01-26T07:09:55;94705.69;;;4.54;50.51
27958;BME280;15295;42.658;23.374;2023-01-26T07:12:43;94710.09;;;4.62;50.92
27958;BME280;15295;42.658;23.374;2023-01-26T07:15:50;94703.81;;;4.58;50.65
27958;BME280;15295;42.658;23.374;2023-01-26T07:18:31;94751.25;;;4.91;50.76
27958;BME280;15295;42.658;23.374;2023-01-26T07:21:07;94701.53;;;4.60;50.80
27958;BME280;15295;42.658;23.374;2023-01-26T07:23:38;94719.22;;;4.74;50.75
27958;BME280;15295;42.658;23.374;2023-01-26T07:26:13;94737.09;;;4.97;50.87
27958;BME280;15295;42.658;23.374;2023-01-26T07:28:43;94684.72;;;4.51;50.51
27958;BME280;15295;42.658;23.374;2023-01-26T07:31:51;94743.56;;;4.74;51.28
27958;BME280;15295;42.658;23.374;2023-01-26T07:34:26;94720.06;;;4.78;51.17
27958;BME280;15295;42.658;23.374;2023-01-26T07:36:53;94736.25;;;4.93;50.99
27958;BME280;15295;42.658;23.374;2023-01-26T07:39:26;94733.47;;;4.90;51.27
27958;BME280;15295;42.658;23.374;2023-01-26T07:42:23;94701.69;;;4.67;51.38
27958;BME280;15295;42.658;23.374;2023-01-26T07:45:04;94733.31;;;5.02;51.32
27958;BME280;15295;42.658;23.374;2023-01-26T07:47:35;94691.56;;;4.84;51.02
27958;BME280;15295;42.658;23.374;2023-01-26T07:50:19;94698.97;;;4.87;51.05
27958;BME280;15295;42.658;23.374;2023-01-26T07:52:50;94738.22;;;4.96;50.75
27958;BME280;15295;42.658;23.374;2023-01-26T07:55:19;94681.88;;;4.83;50.81
27958;BME280;15295;42.658;23.374;2023-01-26T07:57:48;94708.22;;;4.66;51.07
27958;BME280;15295;42.658;23.374;2023-01-26T08:00:16;94706.81;;;4.73;50.91
27958;BME280;15295;42.658;23.374;2023-01-26T08:02:42;94699.25;;;4.82;50.87
27958;BME280;15295;42.658;23.374;2023-01-26T08:05:13;94726.09;;;5.09;51.02
27958;BME280;15295;42.658;23.374;2023-01-26T08:07:39;94693.34;;;4.95;50.36
27958;BME280;15295;42.658;23.374;2023-01-26T08:10:10;94712.06;;;5.04;50.27
27958;BME280;15295;42.658;23.374;2023-01-26T09:26:04;94676.03;;;5.22;48.92
27958;BME280;15295;42.658;23.374;2023-01-26T09:28:29;94661.53;;;5.34;48.75
27958;BME280;15295;42.658;23.374;2023-01-26T09:30:55;94653.25;;;5.27;48.85
27958;BME280;15295;42.658;23.374;2023-01-26T09:33:31;94652.47;;;5.49;48.41
27958;BME280;15295;42.658;23.374;2023-01-26T09:36:05;94632.78;;;5.52;48.55
27958;BME280;15295;42.658;23.374;2023-01-26T09:52:13;94651.56;;;5.64;48.55
27958;BME280;15295;42.658;23.374;2023-01-26T10:22:34;94579.75;;;5.81;47.84
27958;BME280;15295;42.658;23.374;2023-01-26T10:25:33;94600.25;;;6.04;47.78
27958;BME280;15295;42.658;23.374;2023-01-26T10:27:56;94565.31;;;5.99;47.78
27958;BME280;15295;42.658;23.374;2023-01-26T10:30:24;94584.66;;;6.28;47.45
27958;BME280;15295;42.658;23.374;2023-01-26T10:32:51;94590.22;;;6.38;47.25
27958;BME280;15295;42.658;23.374;2023-01-26T10:35:22;94574.31;;;6.37;46.96
27958;BME280;15295;42.658;23.374;2023-01-26T10:37:49;94570.38;;;6.31;46.74
27958;BME280;15295;42.658;23.374;2023-01-26T10:40:27;94571.91;;;6.32;47.12
27958;BME280;15295;42.658;23.374;2023-01-26T10:42:57;94559.44;;;6.27;47.09
27958;BME280;15295;42.658;23.374;2023-01-26T10:48:18;94543.28;;;6.38;47.17
27958;BME280;15295;42.658;23.374;2023-01-26T10:50:44;94536.72;;;6.39;46.92
27958;BME280;15295;42.658;23.374;2023-01-26T10:53:27;94531.66;;;6.37;46.93
27958;BME280;15295;42.658;23.374;2023-01-26T10:56:02;94513.88;;;6.06;47.35
27958;BME280;15295;42.658;23.374;2023-01-26T10:58:53;94509.41;;;6.24;47.14
27958;BME280;15295;42.658;23.374;2023-01-26T11:01:19;94501.66;;;6.27;47.08
27958;BME280;15295;42.658;23.374;2023-01-26T11:04:11;94501.72;;;6.30;47.21
27958;BME280;15295;42.658;23.374;2023-01-26T11:06:39;94495.53;;;6.33;46.92
27958;BME280;15295;42.658;23.374;2023-01-26T11:09:28;94493.78;;;6.14;47.17
27958;BME280;15295;42.658;23.374;2023-01-26T11:11:56;94499.41;;;6.32;47.21
27958;BME280;15295;42.658;23.374;2023-01-26T11:14:25;94493.38;;;6.46;47.07
27958;BME280;15295;42.658;23.374;2023-01-26T11:17:22;94483.72;;;6.52;46.83
27958;BME280;15295;42.658;23.374;2023-01-26T11:51:43;94356.50;;;5.66;48.36
27958;BME280;15295;42.658;23.374;2023-01-26T11:57:59;94430.38;;;6.30;48.09
27958;BME280;15295;42.658;23.374;2023-01-26T12:00:55;94426.94;;;6.33;48.14
27958;BME280;15295;42.658;23.374;2023-01-26T12:03:48;94417.16;;;6.24;48.40
27958;BME280;15295;42.658;23.374;2023-01-26T12:06:42;94376.81;;;6.19;48.11
27958;BME280;15295;42.658;23.374;2023-01-26T12:23:24;94350.38;;;6.13;48.12
27958;BME280;15295;42.658;23.374;2023-01-26T12:26:16;94309.13;;;5.93;48.61
27958;BME280;15295;42.658;23.374;2023-01-26T12:29:40;94378.03;;;6.26;49.06
27958;BME280;15295;42.658;23.374;2023-01-26T12:32:58;94293.97;;;5.52;49.67
27958;BME280;15295;42.658;23.374;2023-01-26T13:02:57;94333.06;;;5.84;50.95
27958;BME280;15295;42.658;23.374;2023-01-26T13:05:30;94333.22;;;5.98;50.79
27958;BME280;15295;42.658;23.374;2023-01-26T13:11:06;94345.59;;;5.99;51.21
27958;BME280;15295;42.658;23.374;2023-01-26T13:13:53;94348.50;;;5.80;51.86
27958;BME280;15295;42.658;23.374;2023-01-26T13:18:50;94338.41;;;5.77;51.89
27958;BME280;15295;42.658;23.374;2023-01-26T13:21:41;94348.25;;;5.92;51.78
27958;BME280;15295;42.658;23.374;2023-01-26T13:34:53;94328.88;;;5.57;52.95
27958;BME280;15295;42.658;23.374;2023-01-26T13:37:46;94313.06;;;5.63;52.59
27958;BME280;15295;42.658;23.374;2023-01-26T13:40:27;94314.47;;;5.49;52.65
27958;BME280;15295;42.658;23.374;2023-01-26T13:43:34;94333.50;;;5.53;53.11
27958;BME280;15295;42.658;23.374;2023-01-26T13:46:33;94310.13;;;5.78;52.58
27958;BME280;15295;42.658;23.374;2023-01-26T13:49:00;94294.78;;;5.56;52.68
27958;BME280;15295;42.658;23.374;2023-01-26T13:51:33;94312.00;;;5.34;53.21
27958;BME280;15295;42.658;23.374;2023-01-26T13:54:12;94308.91;;;5.72;52.72
27958;BME280;15295;42.658;23.374;2023-01-26T13:56:59;94306.50;;;5.64;52.55
27958;BME280;15295;42.658;23.374;2023-01-26T13:59:25;94293.59;;;5.90;51.99
27958;BME280;15295;42.658;23.374;2023-01-26T14:01:52;94297.56;;;5.96;51.86
27958;BME280;15295;42.658;23.374;2023-01-26T14:04:22;94295.88;;;5.85;52.20
27958;BME280;15295;42.658;23.374;2023-01-26T14:06:51;94286.31;;;5.94;51.69
27958;BME280;15295;42.658;23.374;2023-01-26T14:09:19;94278.75;;;6.21;51.07
27958;BME280;15295;42.658;23.374;2023-01-26T14:11:58;94277.06;;;6.02;51.27
27958;BME280;15295;42.658;23.374;2023-01-26T14:14:27;94279.00;;;6.05;51.05
27958;BME280;15295;42.658;23.374;2023-01-26T14:16:57;94274.44;;;6.16;50.74
27958;BME280;15295;42.658;23.374;2023-01-26T14:19:26;94293.03;;;6.14;50.83
27958;BME280;15295;42.658;23.374;2023-01-26T14:21:54;94254.66;;;6.16;50.33
27958;BME280;15295;42.658;23.374;2023-01-26T14:24:33;94282.34;;;6.36;50.41
27958;BME280;15295;42.658;23.374;2023-01-26T14:37:26;94207.41;;;6.13;49.37
27958;BME280;15295;42.658;23.374;2023-01-26T14:50:37;94227.88;;;6.69;48.60
27958;BME280;15295;42.658;23.374;2023-01-26T15:00:03;94266.44;;;6.99;48.47
27958;BME280;15295;42.658;23.374;2023-01-26T15:03:12;94267.56;;;6.98;48.41
27958;BME280;15295;42.658;23.374;2023-01-26T15:05:41;94203.84;;;6.71;48.20
27958;BME280;15295;42.658;23.374;2023-01-26T15:08:22;94237.66;;;6.91;48.05
27958;BME280;15295;42.658;23.374;2023-01-26T15:16:28;94201.88;;;6.68;48.08
27958;BME280;15295;42.658;23.374;2023-01-26T15:19:03;94210.47;;;6.84;47.97
27958;BME280;15295;42.658;23.374;2023-01-26T15:21:39;94168.84;;;6.55;47.84
27958;BME280;15295;42.658;23.374;2023-01-26T15:31:55;94227.13;;;6.82;51.14
27958;BME280;15295;42.658;23.374;2023-01-26T15:36:59;94229.06;;;6.71;52.63
27958;BME280;15295;42.658;23.374;2023-01-26T15:39:25;94207.25;;;6.54;53.11
27958;BME280;15295;42.658;23.374;2023-01-26T15:42:19;94209.22;;;6.60;53.72
27958;BME280;15295;42.658;23.374;2023-01-26T15:44:45;94196.00;;;6.55;53.84
27958;BME280;15295;42.658;23.374;2023-01-26T15:47:11;94202.91;;;6.42;54.42
27958;BME280;15295;42.658;23.374;2023-01-26T15:49:38;94196.69;;;6.42;54.74
27958;BME280;15295;42.658;23.374;2023-01-26T15:52:12;94194.69;;;6.32;55.16
27958;BME280;15295;42.658;23.374;2023-01-26T15:54:38;94189.59;;;6.19;55.47
27958;BME280;15295;42.658;23.374;2023-01-26T15:57:04;94181.28;;;5.95;56.16
27958;BME280;15295;42.658;23.374;2023-01-26T15:59:30;94164.13;;;5.80;56.62
27958;BME280;15295;42.658;23.374;2023-01-26T16:01:55;94173.47;;;5.86;56.86
27958;BME280;15295;42.658;23.374;2023-01-26T16:04:20;94158.59;;;5.66;57.14
27958;BME280;15295;42.658;23.374;2023-01-26T16:06:47;94179.66;;;5.83;57.46
27958;BME280;15295;42.658;23.374;2023-01-26T16:09:13;94177.44;;;5.96;57.16
27958;BME280;15295;42.658;23.374;2023-01-26T16:11:43;94144.34;;;5.80;57.44
27958;BME280;15295;42.658;23.374;2023-01-26T16:14:12;94168.50;;;5.95;57.57
27958;BME280;15295;42.658;23.374;2023-01-26T16:16:39;94168.59;;;6.09;57.37
27958;BME280;15295;42.658;23.374;2023-01-26T16:19:05;94170.09;;;5.96;57.55
27958;BME280;15295;42.658;23.374;2023-01-26T16:21:33;94174.72;;;5.96;57.93
27958;BME280;15295;42.658;23.374;2023-01-26T16:24:03;94181.34;;;5.98;57.76
27958;BME280;15295;42.658;23.374;2023-01-26T16:26:28;94183.34;;;6.12;57.65
27958;BME280;15295;42.658;23.374;2023-01-26T16:28:54;94167.41;;;6.03;57.81
27958;BME280;15295;42.658;23.374;2023-01-26T16:31:29;94159.66;;;6.02;57.71
27958;BME280;15295;42.658;23.374;2023-01-26T16:33:55;94153.31;;;5.84;57.97
27958;BME280;15295;42.658;23.374;2023-01-26T16:36:20;94166.63;;;6.03;57.76
27958;BME280;15295;42.658;23.374;2023-01-26T16:38:47;94164.31;;;6.05;57.75
27958;BME280;15295;42.658;23.374;2023-01-26T16:41:22;94168.13;;;5.97;57.99
27958;BME280;15295;42.658;23.374;2023-01-26T16:43:48;94161.56;;;5.98;57.71
27958;BME280;15295;42.658;23.374;2023-01-26T16:46:13;94165.81;;;5.99;57.89
27958;BME280;15295;42.658;23.374;2023-01-26T16:48:39;94160.03;;;6.00;57.88
27958;BME280;15295;42.658;23.374;2023-01-26T16:51:14;94159.53;;;5.84;58.45
27958;BME280;15295;42.658;23.374;2023-01-26T16:53:40;94162.97;;;5.81;58.69
27958;BME280;15295;42.658;23.374;2023-01-26T16:56:09;94155.50;;;5.64;58.98
27958;BME280;15295;42.658;23.374;2023-01-26T16:58:36;94131.41;;;5.56;59.12
27958;BME280;15295;42.658;23.374;2023-01-26T17:01:02;94142.28;;;5.63;59.27
27958;BME280;15295;42.658;23.374;2023-01-26T17:03:32;94155.53;;;5.71;59.26
27958;BME280;15295;42.658;23.374;2023-01-26T17:05:58;94149.75;;;5.76;58.92
27958;BME280;15295;42.658;23.374;2023-01-26T17:08:23;94144.72;;;5.75;59.03
27958;BME280;15295;42.658;23.374;2023-01-26T17:10:49;94137.28;;;5.65;59.49
27958;BME280;15295;42.658;23.374;2023-01-26T17:13:15;94137.72;;;5.70;59.58
27958;BME280;15295;42.658;23.374;2023-01-26T17:15:44;94118.88;;;5.37;60.07
27958;BME280;15295;42.658;23.374;2023-01-26T17:18:11;94131.34;;;5.48;60.31
27958;BME280;15295;42.658;23.374;2023-01-26T17:20:38;94133.75;;;5.57;60.23
27958;BME280;15295;42.658;23.374;2023-01-26T17:23:05;94126.66;;;5.45;60.35
27958;BME280;15295;42.658;23.374;2023-01-26T17:25:30;94114.16;;;5.27;60.78
27958;BME280;15295;42.658;23.374;2023-01-26T17:27:56;94108.66;;;5.16;61.15
27958;BME280;15295;42.658;23.374;2023-01-26T17:30:22;94124.56;;;5.21;61.49
27958;BME280;15295;42.658;23.374;2023-01-26T17:32:47;94133.56;;;5.36;61.45
27958;BME280;15295;42.658;23.374;2023-01-26T17:35:13;94118.13;;;5.40;61.10
27958;BME280;15295;42.658;23.374;2023-01-26T17:37:39;94122.44;;;5.48;60.99
27958;BME280;15295;42.658;23.374;2023-01-26T17:40:07;94113.09;;;5.42;60.80
27958;BME280;15295;42.658;23.374;2023-01-26T17:42:33;94106.88;;;5.38;60.95
27958;BME280;15295;42.658;23.374;2023-01-26T17:45:02;94099.91;;;5.37;61.16
27958;BME280;15295;42.658;23.374;2023-01-26T17:47:34;94094.88;;;5.35;61.11
27958;BME280;15295;42.658;23.374;2023-01-26T17:50:01;94103.00;;;5.39;61.40